KNSE/NSE METAR and TAF weather

Enter ICAO airport designator
Station Type Date Time Source
KNSE METAR 2021/09/27 07:56 UTC NOAA

KNSE 270756Z AUTO 00000KT 9SM CLR 16/16 A3008 RMK AO2 SLP170 T01610156 $


Station Type Date Time Source
KNSE Decoded METAR 2021/09/27 07:56 UTC NOAA

MILTON WHITING FIELD (NORTH), FL, United States (KNSE) 30-44N 87-01W 60M
Sep 27, 2021 - 03:56 AM EDT / 2021.09.27 0756 UTC
Wind: Calm:0
Visibility: 9 mile(s):0
Sky conditions: clear
Temperature: 61.0 F (16.1 C)
Dew Point: 60.1 F (15.6 C)
Relative Humidity: 96%
Pressure (altimeter): 30.08 in. Hg (1018 hPa)
ob: KNSE 270756Z AUTO 00000KT 9SM CLR 16/16 A3008 RMK AO2 SLP170 T01610156
cycle: 8

Station Type Date Time Source
KNSE TAF 2021/09/27 07:09 UTC NOAA

TAF KNSE 2707/2807 VRB06KT 9999 SKC QNH3007INS
TEMPO 2707/2711 VRB06KT 8000 BR SCT017 QNH3008INS
BECMG 2715/2716 VRB06KT 9999 NSW SCT025 QNH3007 T17/2711Z T28/2720Z FN00243

Example: see airport list